Aérodrome :
LOGIN :

S'inscrire | Disclaimer

   EN    FR    IT 

 










Légende :    VFR   VFR Marginal   IFR   IFR Intensif   IFR Très Intensif
Visi : 
Plafond : 
>= 8 km
>= 3000ft
5 à 8 km
1000 à 3000 ft
1500m à 5 km
500 à 1000 ft
800 à 1500m
200 à 500 ft
< 800m
< 200 ft
Symboles :   Orages  Brouillard  Fortes neiges  Fortes précipitations  Vent > 20 kt
SIGMETs :   Divers  Orages  Givrage  Turbulence  Onde Orograph.  Cendres Volcan.







- Altitude de l'aérodrome : 12 ft
- Code IATA : BCN


LEBL - Barcelone

DERNIER METAR :
  • 230000Z 29003KT 9999 FEW006 15/13 Q1018 NOSIG

METARs EXPIRÉS :
  • 222330Z 25007KT CAVOK 16/15 Q1018 NOSIG
  • 222300Z 23007KT 9999 FEW020 17/15 Q1018 NOSIG
  • 222230Z 23006KT 9999 FEW020 17/15 Q1018 NOSIG
  • 222200Z 22006KT 9999 FEW020 17/15 Q1019 NOSIG
  • 222130Z 21006KT 9999 FEW020 17/15 Q1019 NOSIG

TAF TAF LEBL
Valide du 23 à 00h jusqu'au 24 à 00h UTC


222300Z 2300/2324 VRB04KT 9999 FEW025 TX22/2312Z TN14/2306Z
PROB40
TEMPO 2300/2306 3000 BR BKN010
PROB30
TEMPO 2300/2306 0100 BCFG BKN005
BECMG 2310/2312 20010KT
BECMG 2319/2321 VRB03KT
PROB40
TEMPO 2312/2324 1000 BR BKN010
Pas de NOTAMs connus pour ce terrain.



MET'MAP, la Météo Aéronautique d'un coup d'oeil ! - Copyright ORBIFLY Décembre 2007 - Disclaimer

ORBIFLY MET'MAP TEAM :

Programmation & Développement : Alexandra Zaïnal
Conception & Développement : Baudouin d'Aumeries
Co-Programmation & Développement : Marc-Olivier Méhu
Soutien technique & logistique : Manuel Goepfert

Contact : metmap@orbifly.com




SOURCES & CREDITS :

   NOAA